EmailTwitter


Observations de surface / Québec / LFBT

Régions: Québec | Canada | États-Unis | Europe | France | UK | Elsewhere
Station
Affichage
Infos & localisation pour LFBT | Aide pour décoder les METARs

Observations prises le 2017-05-26 à 01H30 UTC à TARBES/OSSUN, FR (LFBT)

Température: 19.0 Celsius

Point de rosée: 13.0 Celsius

Humidité relative: 68%

Vents: Sud-ouest à 17 km/h ou 9 noeuds.

Pression au niveau moyen de la mer: 101.50 kilopascals.

Observation METAR:

LFBT 260130Z AUTO 24009KT CAVOK 19/13 Q1015 NOSIG=